createdAt,value
2018-09-28T00:00:49.410Z,101439.24
2018-09-28T00:03:17.717Z,101447.22
2018-09-28T00:05:46.032Z,101447.67
2018-09-28T00:08:14.385Z,101446.49
2018-09-28T00:10:42.675Z,101451.25
2018-09-28T00:13:11.011Z,101454.92
2018-09-28T00:15:39.350Z,101461.41
2018-09-28T00:18:07.746Z,101464.58
2018-09-28T00:20:36.042Z,101466.73
2018-09-28T00:23:04.347Z,101468.92
2018-09-28T00:25:32.694Z,101459.59
2018-09-28T00:28:00.990Z,101462.58
2018-09-28T00:30:29.263Z,101463.91
2018-09-28T00:32:57.591Z,101451.86
2018-09-28T00:35:25.962Z,101463.30
2018-09-28T00:37:54.266Z,101452.53
2018-09-28T00:40:22.543Z,101448.20
2018-09-28T00:42:50.906Z,101447.21
2018-09-28T00:45:19.262Z,101446.30
2018-09-28T00:47:47.569Z,101448.00
2018-09-28T00:50:15.860Z,101436.87
2018-09-28T00:52:44.216Z,101436.87
2018-09-28T00:55:13.391Z,101439.44
2018-09-28T00:57:41.686Z,101443.85
2018-09-28T01:00:10.023Z,101445.22
2018-09-28T01:02:38.342Z,101440.05
2018-09-28T01:05:06.649Z,101445.55
2018-09-28T01:07:34.940Z,101441.25
2018-09-28T01:10:03.563Z,101438.69
2018-09-28T01:12:31.878Z,101437.52
2018-09-28T01:15:00.199Z,101442.27
2018-09-28T01:17:28.497Z,101435.02
2018-09-28T01:19:56.814Z,101436.80
2018-09-28T01:22:25.091Z,101442.38
2018-09-28T01:24:53.425Z,101434.34
2018-09-28T01:27:21.758Z,101445.13
2018-09-28T01:29:50.123Z,101439.63
2018-09-28T01:32:18.402Z,101442.68
2018-09-28T01:34:46.853Z,101447.84
2018-09-28T01:37:15.162Z,101448.83
2018-09-28T01:39:43.586Z,101442.52
2018-09-28T01:42:11.866Z,101446.87
2018-09-28T01:44:40.248Z,101443.09
2018-09-28T01:47:08.671Z,101439.34
2018-09-28T01:49:36.985Z,101444.58
2018-09-28T01:52:05.356Z,101445.09
2018-09-28T01:54:33.668Z,101448.53
2018-09-28T01:57:02.027Z,101452.45
2018-09-28T01:59:30.339Z,101450.30
2018-09-28T02:01:58.627Z,101455.53
2018-09-28T02:04:26.999Z,101468.84
2018-09-28T02:06:55.294Z,101468.03
2018-09-28T02:09:23.605Z,101469.02
2018-09-28T02:11:51.959Z,101467.73
2018-09-28T02:14:20.291Z,101468.19
2018-09-28T02:16:48.570Z,101468.31
2018-09-28T02:19:16.912Z,101461.11
2018-09-28T02:21:45.215Z,101465.89
2018-09-28T02:24:13.518Z,101463.38
2018-09-28T02:26:41.787Z,101462.56
2018-09-28T02:29:10.070Z,101459.63
2018-09-28T02:31:38.422Z,101461.00
2018-09-28T02:34:06.982Z,101467.53
2018-09-28T02:36:35.283Z,101461.13
2018-09-28T02:39:04.235Z,101463.76
2018-09-28T02:41:32.558Z,101469.33
2018-09-28T02:44:00.842Z,101466.30
2018-09-28T02:46:29.176Z,101472.38
2018-09-28T02:48:57.474Z,101472.89
2018-09-28T02:51:25.733Z,101469.89
2018-09-28T02:53:54.030Z,101469.95
2018-09-28T02:56:22.338Z,101472.08
2018-09-28T02:58:50.667Z,101468.23
2018-09-28T03:01:18.947Z,101464.89
2018-09-28T03:03:47.210Z,101475.18
2018-09-28T03:06:15.579Z,101479.42
2018-09-28T03:08:43.895Z,101479.03
2018-09-28T03:11:12.183Z,101479.52
2018-09-28T03:13:40.481Z,101483.34
2018-09-28T03:16:08.750Z,101465.67
2018-09-28T03:18:37.322Z,101479.53
2018-09-28T03:21:05.591Z,101484.28
2018-09-28T03:23:36.791Z,101488.53
2018-09-28T03:26:05.149Z,101486.34
2018-09-28T03:28:33.366Z,101483.23
2018-09-28T03:31:01.686Z,101496.81
2018-09-28T03:33:29.938Z,101497.09
2018-09-28T03:35:58.218Z,101499.66
2018-09-28T03:38:26.511Z,101499.27
2018-09-28T03:40:54.800Z,101501.40
2018-09-28T03:43:23.067Z,101503.55
2018-09-28T03:45:51.353Z,101504.81
2018-09-28T03:48:19.642Z,101502.83
2018-09-28T03:50:47.927Z,101507.49
2018-09-28T03:53:16.182Z,101499.80
2018-09-28T03:55:44.494Z,101510.54
2018-09-28T03:58:12.773Z,101508.91
2018-09-28T04:00:41.056Z,101517.03
2018-09-28T04:03:09.328Z,101511.48
2018-09-28T04:05:37.733Z,101512.82
2018-09-28T04:08:06.016Z,101514.12
2018-09-28T04:10:34.302Z,101514.11
2018-09-28T04:13:02.623Z,101515.40
2018-09-28T04:15:30.954Z,101514.11
2018-09-28T04:17:59.267Z,101520.66
2018-09-28T04:20:27.597Z,101517.50
2018-09-28T04:22:55.891Z,101514.91
2018-09-28T04:25:24.254Z,101517.00
2018-09-28T04:27:52.550Z,101521.36
2018-09-28T04:30:20.867Z,101526.56
2018-09-28T04:32:49.193Z,101527.52
2018-09-28T04:35:17.493Z,101536.52
2018-09-28T04:37:45.800Z,101539.95
2018-09-28T04:40:14.090Z,101547.15
2018-09-28T04:42:42.401Z,101545.44
2018-09-28T04:45:10.777Z,101547.73
2018-09-28T04:47:39.035Z,101554.72
2018-09-28T04:50:07.351Z,101549.97
2018-09-28T04:52:35.634Z,101557.72
2018-09-28T04:55:03.934Z,101555.59
2018-09-28T04:57:32.251Z,101568.04
2018-09-28T05:00:00.538Z,101584.30
2018-09-28T05:02:28.849Z,101588.31
2018-09-28T05:04:57.135Z,101599.37
2018-09-28T05:07:25.444Z,101601.58
2018-09-28T05:09:53.730Z,101612.31
2018-09-28T05:12:22.103Z,101614.28
2018-09-28T05:14:50.379Z,101607.06
2018-09-28T05:17:18.668Z,101613.00
2018-09-28T05:19:46.964Z,101613.17
2018-09-28T05:22:15.246Z,101614.95
2018-09-28T05:24:43.538Z,101620.67
2018-09-28T05:27:11.914Z,101622.00
2018-09-28T05:29:40.181Z,101625.99
2018-09-28T05:32:08.599Z,101625.67
2018-09-28T05:34:36.793Z,101625.31
2018-09-28T05:37:05.357Z,101637.41
2018-09-28T05:39:33.745Z,101637.47
2018-09-28T05:42:02.831Z,101640.14
2018-09-28T05:44:31.127Z,101645.28
2018-09-28T05:46:59.467Z,101651.75
2018-09-28T05:49:27.850Z,101653.06
2018-09-28T05:51:56.255Z,101653.20
2018-09-28T05:54:24.570Z,101657.12
2018-09-28T05:56:52.936Z,101667.86
2018-09-28T05:59:26.499Z,101670.08
2018-09-28T06:02:00.139Z,101669.66
2018-09-28T06:04:33.872Z,101677.86
2018-09-28T06:07:02.194Z,101681.30
2018-09-28T06:09:30.478Z,101688.58
2018-09-28T06:11:59.288Z,101687.70
2018-09-28T06:14:27.569Z,101692.86
2018-09-28T06:16:55.850Z,101699.16
2018-09-28T06:19:24.111Z,101705.11
2018-09-28T06:21:52.382Z,101704.50
2018-09-28T06:24:20.646Z,101704.44
2018-09-28T06:26:48.925Z,101709.06
2018-09-28T06:29:17.188Z,101710.59
2018-09-28T06:31:45.494Z,101717.48
2018-09-28T06:34:13.754Z,101723.80
2018-09-28T06:36:42.044Z,101725.98
2018-09-28T06:39:10.350Z,101721.08
2018-09-28T06:41:38.677Z,101729.66
2018-09-28T06:44:06.942Z,101733.14
2018-09-28T06:46:35.239Z,101732.57
2018-09-28T06:49:03.546Z,101740.64
2018-09-28T06:51:31.814Z,101746.79
2018-09-28T06:54:00.121Z,101744.59
2018-09-28T06:56:28.383Z,101755.56
2018-09-28T06:58:56.766Z,101761.16
2018-09-28T07:01:25.075Z,101768.60
2018-09-28T07:03:53.371Z,101775.17
2018-09-28T07:06:21.774Z,101779.27
2018-09-28T07:08:50.091Z,101782.26
2018-09-28T07:11:18.363Z,101789.98
2018-09-28T07:13:46.667Z,101794.62
2018-09-28T07:16:15.000Z,101798.43
2018-09-28T07:18:43.251Z,101808.53
2018-09-28T07:21:11.499Z,101808.18
2018-09-28T07:23:39.796Z,101814.94
2018-09-28T07:26:08.075Z,101815.91
2018-09-28T07:28:37.333Z,101820.94
2018-09-28T07:31:05.607Z,101821.28
2018-09-28T07:33:33.930Z,101825.68
2018-09-28T07:36:02.314Z,101827.86
2018-09-28T07:38:30.562Z,101836.14
2018-09-28T07:40:58.843Z,101835.08
2018-09-28T07:43:27.134Z,101834.35
2018-09-28T07:45:55.407Z,101849.24
2018-09-28T07:53:30.859Z,101853.15
2018-09-28T07:55:59.261Z,101853.61
2018-09-28T07:58:27.567Z,101854.17
2018-09-28T08:01:01.402Z,101861.36
2018-09-28T08:03:30.335Z,101859.86
2018-09-28T08:06:00.019Z,101865.06
2018-09-28T08:08:28.310Z,101862.52
2018-09-28T08:10:56.598Z,101870.95
2018-09-28T08:13:24.938Z,101868.39
2018-09-28T08:15:53.235Z,101867.61
2018-09-28T08:18:22.553Z,101872.39
2018-09-28T08:20:51.210Z,101870.59
2018-09-28T08:23:19.584Z,101885.64
2018-09-28T08:25:47.899Z,101889.22
2018-09-28T08:28:16.206Z,101885.80
2018-09-28T08:30:44.542Z,101896.16
2018-09-28T08:33:12.859Z,101896.16
2018-09-28T08:35:41.159Z,101901.02
2018-09-28T08:38:09.469Z,101900.38
2018-09-28T08:40:37.774Z,101895.52
2018-09-28T08:43:06.144Z,101900.56
2018-09-28T08:45:34.463Z,101907.59
2018-09-28T08:48:02.796Z,101899.89
2018-09-28T08:50:31.093Z,101910.17
2018-09-28T08:52:59.422Z,101904.22
2018-09-28T08:55:27.758Z,101907.22
2018-09-28T08:57:56.066Z,101908.08
2018-09-28T09:00:24.397Z,101911.45
2018-09-28T09:02:52.711Z,101915.35
2018-09-28T09:05:21.035Z,101915.05
2018-09-28T09:07:49.430Z,101921.53
2018-09-28T09:10:17.746Z,101923.39
2018-09-28T09:12:46.051Z,101932.08
2018-09-28T09:15:14.361Z,101930.28
2018-09-28T09:17:42.639Z,101928.00
2018-09-28T09:20:10.942Z,101926.19
2018-09-28T09:22:39.215Z,101932.00
2018-09-28T09:25:07.543Z,101924.23
2018-09-28T09:27:35.854Z,101931.42
2018-09-28T09:30:04.463Z,101935.55
2018-09-28T09:32:32.727Z,101934.14
2018-09-28T09:35:01.780Z,101933.81
2018-09-28T09:37:30.856Z,101931.19
2018-09-28T09:39:59.979Z,101932.59
2018-09-28T09:42:29.069Z,101935.78
2018-09-28T09:44:57.641Z,101931.84
2018-09-28T09:47:26.631Z,101932.89
2018-09-28T09:49:55.730Z,101935.02
2018-09-28T09:52:24.729Z,101930.95
2018-09-28T09:54:53.707Z,101933.45
2018-09-28T09:57:22.699Z,101932.56
2018-09-28T09:59:51.831Z,101927.59
2018-09-28T10:02:26.887Z,101926.94
2018-09-28T10:04:55.224Z,101932.30
2018-09-28T10:07:23.498Z,101930.09
2018-09-28T10:09:51.798Z,101936.04
2018-09-28T10:12:20.180Z,101930.73
2018-09-28T10:14:48.478Z,101935.55
2018-09-28T10:17:16.759Z,101930.09
2018-09-28T10:19:45.167Z,101926.88
2018-09-28T10:22:13.432Z,101927.80
2018-09-28T10:24:42.775Z,101933.73
2018-09-28T10:27:12.038Z,101929.19
2018-09-28T10:29:40.449Z,101937.72
2018-09-28T10:32:08.866Z,101951.59
2018-09-28T10:34:37.215Z,101938.81
2018-09-28T10:37:05.587Z,101938.36
2018-09-28T10:39:33.886Z,101940.60
2018-09-28T10:42:02.274Z,101930.87
2018-09-28T10:44:30.554Z,101933.67
2018-09-28T10:46:58.874Z,101934.55
2018-09-28T10:49:27.211Z,101935.39
2018-09-28T10:51:55.576Z,101928.22
2018-09-28T10:54:23.825Z,101943.18
2018-09-28T10:56:52.169Z,101936.70
2018-09-28T10:59:20.482Z,101927.94
2018-09-28T11:01:48.851Z,101936.34
2018-09-28T11:04:17.149Z,101934.54
2018-09-28T11:06:45.470Z,101933.53
2018-09-28T11:09:13.960Z,101929.22
2018-09-28T11:11:42.762Z,101934.09
2018-09-28T11:14:11.243Z,101938.98
2018-09-28T11:16:40.020Z,101930.98
2018-09-28T11:19:08.319Z,101927.27
2018-09-28T11:21:36.659Z,101929.09
2018-09-28T11:24:04.958Z,101927.77
2018-09-28T11:26:34.322Z,101923.45
2018-09-28T11:29:02.603Z,101938.33
2018-09-28T11:31:30.906Z,101934.44
2018-09-28T11:33:59.220Z,101930.20
2018-09-28T11:36:27.547Z,101926.97
2018-09-28T11:38:55.844Z,101933.68
2018-09-28T11:41:24.171Z,101926.28
2018-09-28T11:43:52.471Z,101937.59
2018-09-28T11:46:20.794Z,101934.30
2018-09-28T11:48:49.117Z,101934.91
2018-09-28T11:51:17.460Z,101941.12
2018-09-28T11:53:45.746Z,101936.85
2018-09-28T11:56:14.070Z,101938.02
2018-09-28T11:58:42.371Z,101935.48
2018-09-28T12:01:10.692Z,101936.46
2018-09-28T12:03:39.043Z,101941.44
2018-09-28T12:06:07.349Z,101935.39
2018-09-28T12:08:35.746Z,101936.34
2018-09-28T12:11:04.505Z,101937.91
2018-09-28T12:13:32.864Z,101937.33
2018-09-28T12:16:01.078Z,101940.83
2018-09-28T12:18:29.393Z,101945.82
2018-09-28T12:20:57.686Z,101946.30
2018-09-28T12:23:25.979Z,101944.22
2018-09-28T12:25:54.249Z,101944.89
2018-09-28T12:28:22.560Z,101943.73
2018-09-28T12:30:50.901Z,101948.00
2018-09-28T12:33:19.217Z,101945.52
2018-09-28T12:35:47.467Z,101936.80
2018-09-28T12:38:15.750Z,101942.52
2018-09-28T12:40:44.069Z,101941.28
2018-09-28T12:43:12.378Z,101942.13
2018-09-28T12:45:40.721Z,101946.75
2018-09-28T12:48:09.026Z,101939.20
2018-09-28T12:50:37.343Z,101942.28
2018-09-28T12:53:05.627Z,101933.52
2018-09-28T12:55:33.926Z,101938.75
2018-09-28T12:58:02.245Z,101937.83
2018-09-28T13:00:30.557Z,101945.70
2018-09-28T13:02:59.947Z,101942.96
2018-09-28T13:05:28.228Z,101943.41
2018-09-28T13:07:56.595Z,101941.25
2018-09-28T13:10:24.887Z,101945.25
2018-09-28T13:12:53.231Z,101948.66
2018-09-28T13:15:21.518Z,101949.28
2018-09-28T13:17:49.868Z,101948.20
2018-09-28T13:20:18.184Z,101950.78
2018-09-28T13:22:47.564Z,101946.31
2018-09-28T13:25:15.906Z,101943.58
2018-09-28T13:27:44.199Z,101942.41
2018-09-28T13:30:12.561Z,101940.12
2018-09-28T13:32:40.859Z,101940.12
2018-09-28T13:35:09.203Z,101947.28
2018-09-28T13:37:37.503Z,101943.57
2018-09-28T13:40:05.821Z,101938.64
2018-09-28T13:42:34.545Z,101948.99
2018-09-28T13:45:02.958Z,101950.64
2018-09-28T13:47:31.221Z,101953.70
2018-09-28T13:49:59.549Z,101960.52
2018-09-28T13:52:27.924Z,101966.51
2018-09-28T13:54:56.204Z,101957.20
2018-09-28T13:57:24.498Z,101963.58
2018-09-28T13:59:52.818Z,101961.40
2018-09-28T14:02:22.204Z,101950.55
2018-09-28T14:04:50.517Z,101956.44
2018-09-28T14:07:18.939Z,101963.27
2018-09-28T14:09:47.211Z,101970.86
2018-09-28T14:12:15.546Z,101969.94
2018-09-28T14:14:43.870Z,101969.15
2018-09-28T14:17:12.121Z,101977.58
2018-09-28T14:19:40.406Z,101973.56
2018-09-28T14:22:09.112Z,101976.80
2018-09-28T14:24:37.522Z,101975.45
2018-09-28T14:27:05.755Z,101978.24
2018-09-28T14:29:34.018Z,101990.20
2018-09-28T14:32:02.326Z,101988.74
2018-09-28T14:34:30.628Z,101990.84
2018-09-28T14:36:59.954Z,101991.25
2018-09-28T14:39:29.309Z,101998.38
2018-09-28T14:41:57.615Z,101992.99
2018-09-28T14:44:30.484Z,102000.02
2018-09-28T14:46:58.774Z,101998.87
2018-09-28T14:49:27.092Z,102002.12
2018-09-28T14:51:55.394Z,101997.53
2018-09-28T14:54:23.901Z,101999.09
2018-09-28T14:56:52.178Z,102010.48
2018-09-28T14:59:20.463Z,102017.90
2018-09-28T15:01:48.794Z,102020.36
2018-09-28T15:04:17.244Z,102020.62
2018-09-28T15:06:45.608Z,102016.26
2018-09-28T15:09:13.874Z,102022.39
2018-09-28T15:11:42.185Z,102029.03
2018-09-28T15:14:10.699Z,102027.07
2018-09-28T15:16:39.296Z,102032.26
2018-09-28T15:19:07.584Z,102027.75
2018-09-28T15:21:35.926Z,102023.20
2018-09-28T15:24:04.253Z,102034.08
2018-09-28T15:26:32.650Z,102020.52
2018-09-28T15:29:00.940Z,102022.06
2018-09-28T15:31:29.270Z,101951.07
2018-09-28T15:33:57.573Z,102009.37
2018-09-28T15:36:25.886Z,102027.11
2018-09-28T15:38:54.211Z,102035.75
2018-09-28T15:41:22.522Z,102032.87
2018-09-28T15:43:50.808Z,102034.53
2018-09-28T15:46:19.138Z,102042.11
2018-09-28T15:48:47.442Z,102036.42
2018-09-28T15:51:15.758Z,102041.66
2018-09-28T15:53:44.055Z,102050.05
2018-09-28T15:56:12.360Z,102047.36
2018-09-28T15:58:41.038Z,102050.61
2018-09-28T16:01:09.395Z,102055.00
2018-09-28T16:03:37.680Z,102054.00
2018-09-28T16:06:05.987Z,102057.37
2018-09-28T16:08:34.290Z,102057.45
2018-09-28T16:11:02.602Z,102052.53
2018-09-28T16:13:30.950Z,102062.22
2018-09-28T16:15:59.234Z,102059.05
2018-09-28T16:18:27.768Z,102062.12
2018-09-28T16:20:56.083Z,102065.23
2018-09-28T16:23:24.398Z,102057.01
2018-09-28T16:25:52.694Z,102064.95
2018-09-28T16:28:21.011Z,102064.13
2018-09-28T16:30:49.324Z,102073.27
2018-09-28T16:33:17.655Z,102075.22
2018-09-28T16:35:45.967Z,102080.16
2018-09-28T16:38:14.310Z,102079.36
2018-09-28T16:40:42.589Z,102089.41
2018-09-28T16:43:10.915Z,102091.34
2018-09-28T16:45:39.213Z,102093.59
2018-09-28T16:48:07.543Z,102091.89
2018-09-28T16:50:36.013Z,102101.33
2018-09-28T16:53:05.010Z,102106.27
2018-09-28T16:55:33.834Z,102106.59
2018-09-28T16:58:02.166Z,102100.86
2018-09-28T17:00:30.498Z,102101.41
2018-09-28T17:02:58.874Z,102103.12
2018-09-28T17:05:27.650Z,102100.27
2018-09-28T17:07:56.983Z,102115.63
2018-09-28T17:10:25.751Z,102128.46
2018-09-28T17:12:54.063Z,102138.89
2018-09-28T17:15:22.365Z,102139.35
2018-09-28T17:17:50.658Z,102130.97
2018-09-28T17:20:19.012Z,102141.68
2018-09-28T17:22:47.324Z,102141.84
2018-09-28T17:25:15.641Z,102147.88
2018-09-28T17:27:44.424Z,102155.06
2018-09-28T17:30:12.868Z,102158.52
2018-09-28T17:32:41.672Z,102154.08
2018-09-28T17:35:10.418Z,102149.16
2018-09-28T17:37:39.331Z,102158.35
2018-09-28T17:40:07.695Z,102159.66
2018-09-28T17:42:35.986Z,102163.81
2018-09-28T17:45:05.155Z,102166.84
2018-09-28T17:47:34.209Z,102163.39
2018-09-28T17:50:02.555Z,102168.27
2018-09-28T17:52:30.839Z,102166.46
2018-09-28T17:54:59.155Z,102173.46
2018-09-28T17:57:27.439Z,102179.54
2018-09-28T17:59:55.727Z,102193.38
2018-09-28T18:02:24.032Z,102194.31
2018-09-28T18:04:52.351Z,102202.31
2018-09-28T18:07:20.714Z,102201.95
2018-09-28T18:09:49.019Z,102211.98
2018-09-28T18:12:17.347Z,102221.27
2018-09-28T18:14:45.655Z,102220.81
2018-09-28T18:17:13.943Z,102228.58
2018-09-28T18:19:42.266Z,102225.02
2018-09-28T18:22:10.591Z,102222.33
2018-09-28T18:24:38.927Z,102228.11
2018-09-28T18:27:07.592Z,102238.02
2018-09-28T18:29:35.890Z,102238.45
2018-09-28T18:32:04.178Z,102243.05
2018-09-28T18:34:32.834Z,102247.03
2018-09-28T18:37:01.655Z,102254.58
2018-09-28T18:39:29.971Z,102256.30
2018-09-28T18:41:58.303Z,102260.75
2018-09-28T18:44:26.599Z,102261.71
2018-09-28T18:46:55.295Z,102262.72
2018-09-28T18:49:23.617Z,102262.25
2018-09-28T18:51:51.947Z,102259.61
2018-09-28T18:54:20.244Z,102263.52
2018-09-28T18:56:48.543Z,102265.48
2018-09-28T18:59:16.851Z,102268.98
2018-09-28T19:01:45.145Z,102264.20
2018-09-28T19:04:13.436Z,102265.48
2018-09-28T19:06:41.747Z,102263.30
2018-09-28T19:09:11.314Z,102266.13
2018-09-28T19:11:40.125Z,102262.00
2018-09-28T19:14:08.435Z,102264.13
2018-09-28T19:16:36.802Z,102261.86
2018-09-28T19:19:05.085Z,102260.33
2018-09-28T19:21:33.450Z,102260.45
2018-09-28T19:24:01.718Z,102261.81
2018-09-28T19:26:30.003Z,102259.30
2018-09-28T19:28:58.273Z,102262.22
2018-09-28T19:31:26.563Z,102263.02
2018-09-28T19:33:54.838Z,102262.09
2018-09-28T19:36:23.134Z,102268.77
2018-09-28T19:38:51.415Z,102276.13
2018-09-28T19:41:19.709Z,102279.34
2018-09-28T19:43:47.983Z,102288.51
2018-09-28T19:46:16.326Z,102289.12
2018-09-28T19:48:44.607Z,102290.13
2018-09-28T19:51:12.922Z,102292.05
2018-09-28T19:53:41.191Z,102291.04
2018-09-28T19:56:10.307Z,102301.19
2018-09-28T19:58:38.938Z,102300.06
2018-09-28T20:01:07.500Z,102311.48
2018-09-28T20:03:35.810Z,102310.48
2018-09-28T20:06:04.166Z,102312.91
2018-09-28T20:08:32.486Z,102323.45
2018-09-28T20:11:00.794Z,102325.67
2018-09-28T20:13:29.106Z,102326.88
2018-09-28T20:15:57.378Z,102327.63
2018-09-28T20:18:25.646Z,102331.40
2018-09-28T20:20:53.919Z,102333.38
2018-09-28T20:23:22.239Z,102334.52
2018-09-28T20:25:50.580Z,102331.72
2018-09-28T20:28:18.882Z,102327.66
2018-09-28T20:30:47.179Z,102330.11
2018-09-28T20:33:15.458Z,102332.65
2018-09-28T20:35:44.790Z,102333.72
2018-09-28T20:38:13.106Z,102336.62
2018-09-28T20:40:41.386Z,102332.54
2018-09-28T20:43:09.687Z,102335.27
2018-09-28T20:45:37.978Z,102341.37
2018-09-28T20:48:06.594Z,102340.36
2018-09-28T20:50:34.862Z,102343.34
2018-09-28T20:53:03.202Z,102355.28
2018-09-28T20:55:31.554Z,102351.12
2018-09-28T20:57:59.846Z,102352.08
2018-09-28T21:00:28.113Z,102354.89
2018-09-28T21:02:56.408Z,102353.04
2018-09-28T21:05:24.711Z,102354.25
2018-09-28T21:07:52.998Z,102356.72
2018-09-28T21:10:21.263Z,102357.06
2018-09-28T21:12:49.871Z,102362.93
2018-09-28T21:15:19.178Z,102362.49
2018-09-28T21:17:47.475Z,102365.39
2018-09-28T21:20:15.774Z,102369.98
2018-09-28T21:22:44.070Z,102362.60
2018-09-28T21:25:12.346Z,102369.65
2018-09-28T21:27:40.697Z,102368.20
2018-09-28T21:30:08.967Z,102375.24
2018-09-28T21:32:37.274Z,102383.16
2018-09-28T21:35:05.905Z,102392.23
2018-09-28T21:37:34.232Z,102390.78
2018-09-28T21:40:02.498Z,102389.02
2018-09-28T21:42:30.780Z,102391.81
2018-09-28T21:44:59.054Z,102394.74
2018-09-28T21:47:27.322Z,102394.58
2018-09-28T21:49:55.813Z,102397.88
2018-09-28T21:52:24.125Z,102397.30
2018-09-28T21:54:53.454Z,102388.03
2018-09-28T21:57:21.742Z,102387.60
2018-09-28T21:59:50.079Z,102391.16
2018-09-28T22:02:18.365Z,102396.10
2018-09-28T22:04:46.693Z,102394.75
2018-09-28T22:07:14.962Z,102396.91
2018-09-28T22:09:43.271Z,102398.44
2018-09-28T22:12:11.818Z,102388.39
2018-09-28T22:14:40.221Z,102385.14
2018-09-28T22:17:08.506Z,102380.24
2018-09-28T22:19:36.803Z,102375.81
2018-09-28T22:22:05.098Z,102378.55
2018-09-28T22:24:33.434Z,102373.84
2018-09-28T22:27:01.742Z,102376.65
2018-09-28T22:29:30.048Z,102373.69
2018-09-28T22:31:58.338Z,102373.69
2018-09-28T22:34:26.662Z,102380.48
2018-09-28T22:36:54.945Z,102388.84
2018-09-28T22:39:23.241Z,102389.61
2018-09-28T22:41:51.532Z,102393.89
2018-09-28T22:44:19.839Z,102399.37
2018-09-28T22:46:48.134Z,102408.64
2018-09-28T22:49:16.430Z,102409.25
2018-09-28T22:51:44.717Z,102403.63
2018-09-28T22:54:13.028Z,102409.18
2018-09-28T22:56:41.326Z,102411.73
2018-09-28T22:59:09.639Z,102410.34
2018-09-28T23:01:39.151Z,102405.95
2018-09-28T23:04:08.468Z,102408.27
2018-09-28T23:06:36.755Z,102403.88
2018-09-28T23:09:06.528Z,102404.23
2018-09-28T23:11:34.823Z,102396.30
2018-09-28T23:14:03.167Z,102405.09
2018-09-28T23:16:31.454Z,102403.77
2018-09-28T23:18:59.742Z,102404.38
2018-09-28T23:21:28.053Z,102405.50
2018-09-28T23:23:56.330Z,102398.11
2018-09-28T23:26:24.595Z,102398.43
2018-09-28T23:28:52.889Z,102397.55
2018-09-28T23:31:21.172Z,102391.36
2018-09-28T23:33:49.479Z,102393.39
2018-09-28T23:36:17.742Z,102398.03
2018-09-28T23:38:46.028Z,102401.18
2018-09-28T23:41:14.286Z,102406.69
2018-09-28T23:43:42.600Z,102410.35
2018-09-28T23:46:10.854Z,102408.68
2018-09-28T23:48:39.130Z,102411.39
2018-09-28T23:51:07.474Z,102413.07
2018-09-28T23:53:35.831Z,102417.62
2018-09-28T23:56:04.085Z,102419.77
2018-09-28T23:58:32.362Z,102417.17
